createdAt,value
2022-11-24T00:01:55.696Z,73.15
2022-11-24T00:04:26.918Z,78.10
2022-11-24T00:06:56.839Z,70.88
2022-11-24T00:09:26.843Z,77.15
2022-11-24T00:11:56.663Z,65.00
2022-11-24T00:14:26.449Z,76.70
2022-11-24T00:16:56.533Z,75.50
2022-11-24T00:19:26.524Z,66.75
2022-11-24T00:21:56.498Z,75.53
2022-11-24T00:24:26.376Z,65.95
2022-11-24T00:26:56.222Z,74.13
2022-11-24T00:29:26.114Z,86.85
2022-11-24T00:31:56.018Z,92.80
2022-11-24T00:34:25.864Z,76.18
2022-11-24T00:36:55.655Z,85.82
2022-11-24T00:39:25.856Z,84.60
2022-11-24T00:41:55.660Z,81.47
2022-11-24T00:44:25.451Z,101.20
2022-11-24T00:46:55.519Z,84.68
2022-11-24T00:49:25.418Z,83.38
2022-11-24T00:51:55.388Z,93.10
2022-11-24T00:54:25.406Z,90.43
2022-11-24T00:56:55.187Z,100.40
2022-11-24T00:59:25.487Z,98.90
2022-11-24T01:01:55.662Z,97.10
2022-11-24T01:04:26.191Z,86.07
2022-11-24T01:09:31.857Z,109.15
2022-11-24T01:12:03.199Z,101.82
2022-11-24T01:14:35.628Z,92.68
2022-11-24T01:17:06.664Z,96.97
2022-11-24T01:19:36.971Z,92.30
2022-11-24T01:22:07.605Z,84.68
2022-11-24T01:24:38.179Z,94.70
2022-11-24T01:27:09.181Z,96.13
2022-11-24T01:29:40.054Z,87.88
2022-11-24T01:32:14.106Z,80.90
2022-11-24T01:34:44.370Z,80.05
2022-11-24T01:37:17.795Z,82.65
2022-11-24T01:39:48.717Z,89.88
2022-11-24T01:42:19.502Z,78.45
2022-11-24T01:44:54.758Z,95.00
2022-11-24T01:47:41.116Z,86.63
2022-11-24T01:50:18.764Z,93.32
2022-11-24T01:52:56.171Z,101.47
2022-11-24T01:55:31.726Z,89.55
2022-11-24T01:58:08.732Z,100.07
2022-11-24T02:00:40.719Z,100.60
2022-11-24T02:03:10.936Z,98.68
2022-11-24T02:05:52.648Z,92.05
2022-11-24T02:08:32.324Z,82.90
2022-11-24T02:11:06.514Z,76.27
2022-11-24T02:13:40.015Z,80.00
2022-11-24T02:16:12.836Z,73.78
2022-11-24T02:18:44.280Z,80.25
2022-11-24T02:21:17.181Z,75.32
2022-11-24T02:24:16.255Z,113.35
2022-11-24T02:26:49.745Z,106.75
2022-11-24T02:29:19.890Z,103.97
2022-11-24T02:31:54.716Z,94.60
2022-11-24T02:34:24.619Z,99.78
2022-11-24T02:36:54.387Z,99.28
2022-11-24T02:39:24.310Z,104.80
2022-11-24T02:42:03.056Z,120.53
2022-11-24T02:44:37.644Z,115.40
2022-11-24T02:47:10.182Z,103.45
2022-11-24T02:49:40.420Z,115.05
2022-11-24T02:52:10.727Z,119.22
2022-11-24T02:54:40.566Z,117.22
2022-11-24T02:57:10.776Z,114.50
2022-11-24T02:59:40.767Z,112.32
2022-11-24T03:02:12.127Z,98.78
2022-11-24T03:04:42.068Z,101.07
2022-11-24T03:07:11.970Z,108.18
2022-11-24T03:09:41.853Z,105.75
2022-11-24T03:12:11.664Z,109.95
2022-11-24T03:14:41.528Z,115.18
2022-11-24T03:17:12.220Z,102.10
2022-11-24T03:19:42.101Z,97.65
2022-11-24T03:22:11.967Z,97.47
2022-11-24T03:24:41.899Z,112.20
2022-11-24T03:27:11.842Z,113.72
2022-11-24T03:29:42.067Z,116.50
2022-11-24T03:32:11.865Z,111.50
2022-11-24T03:34:42.232Z,103.93
2022-11-24T03:37:12.461Z,118.28
2022-11-24T03:39:42.301Z,109.50
2022-11-24T03:42:13.087Z,108.18
2022-11-24T03:44:42.970Z,120.22
2022-11-24T03:47:14.515Z,97.18
2022-11-24T03:49:44.397Z,95.07
2022-11-24T03:52:14.384Z,101.63
2022-11-24T03:54:44.827Z,105.35
2022-11-24T03:59:44.032Z,97.32
2022-11-24T04:02:14.159Z,106.38
2022-11-24T04:04:49.572Z,83.70
2022-11-24T04:07:20.812Z,92.40
2022-11-24T04:09:50.610Z,96.15
2022-11-24T04:12:37.256Z,81.32
2022-11-24T04:15:07.544Z,81.40
2022-11-24T04:17:37.547Z,81.20
2022-11-24T04:20:08.455Z,93.75
2022-11-24T04:22:39.281Z,76.65
2022-11-24T04:25:10.454Z,78.32
2022-11-24T04:27:42.725Z,76.25
2022-11-24T04:30:13.122Z,62.53
2022-11-24T04:35:12.671Z,62.47
2022-11-24T04:37:43.613Z,61.47
2022-11-24T04:40:14.949Z,72.32
2022-11-24T04:42:45.212Z,79.13
2022-11-24T04:45:15.252Z,67.78
2022-11-24T04:47:45.330Z,64.55
2022-11-24T04:50:15.686Z,54.35
2022-11-24T04:55:15.312Z,51.93
2022-11-24T04:57:45.304Z,49.85
2022-11-24T05:00:15.926Z,48.28
2022-11-24T05:02:45.985Z,53.22
2022-11-24T05:05:16.001Z,46.88
2022-11-24T05:07:45.903Z,50.78
2022-11-24T05:10:31.072Z,45.05
2022-11-24T05:13:01.435Z,50.05
2022-11-24T05:15:31.882Z,44.13
2022-11-24T05:18:01.957Z,46.17
2022-11-24T05:20:31.838Z,51.45
2022-11-24T05:23:09.978Z,46.75
2022-11-24T05:25:44.857Z,43.47
2022-11-24T05:28:17.344Z,48.10
2022-11-24T05:30:48.147Z,43.90
2022-11-24T05:33:24.765Z,45.78
2022-11-24T05:35:54.739Z,46.58
2022-11-24T05:38:25.416Z,42.63
2022-11-24T05:40:55.630Z,43.05
2022-11-24T05:45:54.682Z,40.45
2022-11-24T05:48:25.527Z,41.75
2022-11-24T05:50:58.609Z,50.70
2022-11-24T05:53:28.815Z,49.50
2022-11-24T05:58:30.265Z,43.53
2022-11-24T06:01:00.619Z,41.83
2022-11-24T06:03:31.248Z,48.45
2022-11-24T06:06:01.101Z,56.72
2022-11-24T06:08:31.453Z,51.85
2022-11-24T06:11:14.974Z,46.25
2022-11-24T06:13:46.059Z,37.78
2022-11-24T06:16:16.684Z,39.10
2022-11-24T06:18:46.750Z,42.90
2022-11-24T06:21:16.646Z,37.22
2022-11-24T06:23:49.541Z,37.20
2022-11-24T06:26:20.319Z,45.65
2022-11-24T06:28:50.310Z,39.17
2022-11-24T06:31:20.325Z,38.03
2022-11-24T06:33:50.233Z,44.85
2022-11-24T06:36:20.292Z,35.25
2022-11-24T06:38:50.196Z,38.17
2022-11-24T06:41:21.406Z,37.33
2022-11-24T06:43:51.192Z,56.78
2022-11-24T06:46:21.251Z,42.88
2022-11-24T06:48:54.526Z,51.92
2022-11-24T06:51:24.883Z,45.92
2022-11-24T06:53:55.264Z,37.75
2022-11-24T06:56:25.636Z,47.38
2022-11-24T06:58:56.770Z,38.70
2022-11-24T07:01:29.550Z,46.35
2022-11-24T07:04:00.326Z,44.40
2022-11-24T07:06:31.460Z,40.33
2022-11-24T07:09:01.345Z,45.38
2022-11-24T07:11:32.539Z,39.67
2022-11-24T07:14:02.409Z,37.55
2022-11-24T07:16:33.021Z,60.10
2022-11-24T07:19:03.737Z,33.50
2022-11-24T07:21:34.750Z,36.75
2022-11-24T07:24:05.102Z,38.22
2022-11-24T07:26:38.874Z,39.85
2022-11-24T07:29:08.804Z,57.10
2022-11-24T07:31:38.712Z,36.83
2022-11-24T07:34:09.445Z,35.15
2022-11-24T07:36:40.056Z,38.63
2022-11-24T07:39:10.570Z,35.78
2022-11-24T07:41:43.313Z,37.20
2022-11-24T07:44:13.146Z,43.92
2022-11-24T07:46:42.970Z,36.83
2022-11-24T07:49:12.983Z,39.33
2022-11-24T07:51:43.175Z,36.92
2022-11-24T07:56:42.486Z,41.05
2022-11-24T07:59:13.388Z,58.72
2022-11-24T08:01:43.264Z,42.60
2022-11-24T08:04:13.301Z,40.15
2022-11-24T08:06:47.208Z,40.42
2022-11-24T08:09:17.519Z,35.78
2022-11-24T08:11:48.552Z,34.20
2022-11-24T08:14:18.528Z,29.92
2022-11-24T08:16:48.457Z,34.38
2022-11-24T08:19:18.365Z,33.17
2022-11-24T08:21:48.162Z,32.35
2022-11-24T08:24:18.676Z,33.90
2022-11-24T08:26:48.726Z,33.13
2022-11-24T08:29:19.095Z,35.60
2022-11-24T08:31:52.851Z,31.83
2022-11-24T08:34:26.862Z,33.65
2022-11-24T08:36:56.865Z,28.95
2022-11-24T08:39:26.909Z,42.55
2022-11-24T08:41:56.792Z,31.40
2022-11-24T08:44:26.935Z,28.15
2022-11-24T08:46:57.985Z,37.60
2022-11-24T08:49:27.939Z,39.33
2022-11-24T08:51:59.983Z,27.48
2022-11-24T08:54:29.863Z,31.40
2022-11-24T08:57:00.073Z,35.63
2022-11-24T09:01:59.633Z,31.55
2022-11-24T09:04:29.716Z,32.65
2022-11-24T09:07:00.819Z,30.00
2022-11-24T09:09:30.912Z,34.08
2022-11-24T09:14:31.382Z,30.55
2022-11-24T09:17:04.547Z,35.65
2022-11-24T09:19:36.300Z,34.47
2022-11-24T09:22:06.850Z,35.03
2022-11-24T09:24:37.055Z,29.33
2022-11-24T09:29:37.343Z,26.42
2022-11-24T09:32:07.337Z,22.60
2022-11-24T09:34:41.451Z,25.98
2022-11-24T09:37:14.271Z,32.85
2022-11-24T09:39:54.123Z,27.95
2022-11-24T09:42:59.784Z,26.10
2022-11-24T09:46:05.529Z,25.70
2022-11-24T09:48:43.134Z,32.92
2022-11-24T09:51:15.827Z,30.10
2022-11-24T09:53:59.644Z,29.23
2022-11-24T09:56:33.570Z,30.95
2022-11-24T09:59:12.830Z,33.95
2022-11-24T10:01:46.142Z,56.13
2022-11-24T10:04:44.968Z,47.50
2022-11-24T10:07:53.777Z,60.28
2022-11-24T10:11:02.503Z,70.47
2022-11-24T10:14:11.199Z,61.85
2022-11-24T10:17:01.079Z,77.28
2022-11-24T10:20:02.046Z,60.28
2022-11-24T10:22:51.802Z,72.70
2022-11-24T10:25:35.621Z,77.07
2022-11-24T10:28:10.729Z,64.22
2022-11-24T10:30:40.842Z,82.63
2022-11-24T10:33:31.812Z,68.78
2022-11-24T10:36:11.398Z,73.00
2022-11-24T10:39:01.721Z,60.67
2022-11-24T10:44:17.135Z,61.60
2022-11-24T10:46:47.431Z,66.97
2022-11-24T10:49:22.812Z,51.85
2022-11-24T10:52:23.737Z,64.30
2022-11-24T10:54:59.338Z,53.88
2022-11-24T10:57:48.888Z,70.57
2022-11-24T11:00:38.446Z,71.50
2022-11-24T11:03:29.773Z,59.38
2022-11-24T11:06:16.353Z,56.58
2022-11-24T11:08:46.411Z,65.05
2022-11-24T11:11:36.577Z,54.70
2022-11-24T11:14:08.798Z,57.72
2022-11-24T11:16:59.626Z,56.42
2022-11-24T11:19:50.206Z,56.50
2022-11-24T11:22:39.201Z,48.15
2022-11-24T11:25:46.665Z,59.10
2022-11-24T11:28:44.242Z,70.03
2022-11-24T11:31:24.550Z,58.70
2022-11-24T11:34:30.747Z,65.50
2022-11-24T11:37:02.479Z,62.35
2022-11-24T11:39:37.662Z,62.42
2022-11-24T11:43:00.816Z,57.72
2022-11-24T11:45:31.592Z,63.22
2022-11-24T11:48:40.599Z,64.68
2022-11-24T11:54:55.819Z,61.78
2022-11-24T11:57:57.619Z,76.25
2022-11-24T12:00:27.836Z,75.78
2022-11-24T12:03:22.604Z,77.47
2022-11-24T12:06:14.373Z,80.10
2022-11-24T12:09:20.354Z,76.72
2022-11-24T12:12:16.007Z,77.60
2022-11-24T12:15:10.574Z,73.38
2022-11-24T12:17:51.646Z,74.28
2022-11-24T12:23:19.026Z,65.10
2022-11-24T12:26:14.316Z,72.72
2022-11-24T12:29:24.965Z,95.53
2022-11-24T12:32:23.434Z,75.10
2022-11-24T12:35:10.703Z,75.72
2022-11-24T12:37:56.927Z,67.97
2022-11-24T12:40:50.683Z,84.53
2022-11-24T12:43:35.588Z,78.15
2022-11-24T12:46:19.787Z,75.25
2022-11-24T12:49:20.595Z,80.13
2022-11-24T12:51:58.218Z,84.03
2022-11-24T12:54:32.765Z,85.95
2022-11-24T12:57:16.665Z,71.95
2022-11-24T13:00:09.052Z,83.90
2022-11-24T13:03:03.010Z,85.30
2022-11-24T13:05:48.225Z,72.43
2022-11-24T13:08:20.433Z,75.80
2022-11-24T13:10:58.216Z,87.47
2022-11-24T13:13:51.911Z,71.32
2022-11-24T13:16:53.623Z,75.82
2022-11-24T13:19:21.909Z,81.53
2022-11-24T13:22:12.607Z,75.45
2022-11-24T13:24:44.343Z,66.10
2022-11-24T13:27:29.288Z,80.30
2022-11-24T13:29:59.266Z,78.88
2022-11-24T13:32:48.857Z,95.20
2022-11-24T13:35:21.046Z,89.53
2022-11-24T13:37:53.295Z,86.85
2022-11-24T13:40:45.940Z,94.40
2022-11-24T13:43:25.384Z,91.28
2022-11-24T13:45:55.838Z,94.05
2022-11-24T13:51:25.492Z,92.93
2022-11-24T13:53:59.490Z,95.85
2022-11-24T13:56:31.900Z,93.63
2022-11-24T13:59:17.712Z,97.60
2022-11-24T14:01:58.349Z,83.63
2022-11-24T14:04:31.768Z,82.53
2022-11-24T14:07:09.405Z,81.65
2022-11-24T14:09:47.390Z,85.82
2022-11-24T14:12:26.657Z,70.50
2022-11-24T14:15:15.451Z,80.55
2022-11-24T14:17:45.732Z,87.10
2022-11-24T14:20:28.179Z,92.80
2022-11-24T14:22:58.211Z,80.95
2022-11-24T14:25:35.641Z,78.78
2022-11-24T14:28:15.924Z,63.38
2022-11-24T14:30:45.876Z,67.03
2022-11-24T14:33:17.571Z,55.70
2022-11-24T14:35:51.050Z,61.42
2022-11-24T14:38:21.069Z,70.15
2022-11-24T14:40:55.528Z,72.38
2022-11-24T14:43:34.517Z,81.72
2022-11-24T14:46:07.983Z,79.22
2022-11-24T14:48:48.902Z,80.05
2022-11-24T14:51:28.921Z,89.03
2022-11-24T14:54:04.188Z,80.30
2022-11-24T14:56:38.255Z,84.97
2022-11-24T14:59:24.853Z,92.15
2022-11-24T15:01:55.897Z,85.88
2022-11-24T15:04:54.807Z,88.72
2022-11-24T15:07:31.812Z,84.57
2022-11-24T15:10:04.009Z,77.97
2022-11-24T15:12:44.133Z,79.50
2022-11-24T15:15:25.848Z,74.32
2022-11-24T15:18:04.864Z,68.25
2022-11-24T15:20:47.855Z,66.63
2022-11-24T15:23:33.338Z,53.63
2022-11-24T15:26:30.737Z,61.95
2022-11-24T15:29:02.325Z,48.90
2022-11-24T15:31:33.321Z,51.88
2022-11-24T15:34:03.193Z,47.60
2022-11-24T15:36:33.325Z,57.20
2022-11-24T15:39:03.152Z,41.28
2022-11-24T15:41:35.082Z,58.00
2022-11-24T15:44:05.343Z,46.47
2022-11-24T15:46:39.486Z,60.00
2022-11-24T15:49:09.983Z,43.42
2022-11-24T15:51:44.867Z,51.15
2022-11-24T15:54:18.742Z,57.67
2022-11-24T15:56:49.471Z,45.53
2022-11-24T15:59:21.201Z,48.17
2022-11-24T16:01:52.568Z,47.72
2022-11-24T16:04:23.172Z,66.20
2022-11-24T16:09:22.489Z,59.55
2022-11-24T16:11:52.325Z,75.00
2022-11-24T16:14:22.712Z,68.35
2022-11-24T16:16:53.594Z,83.75
2022-11-24T16:19:27.520Z,71.90
2022-11-24T16:21:57.542Z,67.28
2022-11-24T16:24:27.318Z,60.65
2022-11-24T16:26:57.274Z,50.53
2022-11-24T16:29:27.282Z,54.88
2022-11-24T16:31:57.304Z,51.53
2022-11-24T16:34:31.077Z,47.40
2022-11-24T16:37:01.274Z,52.35
2022-11-24T16:39:31.164Z,34.30
2022-11-24T16:42:00.985Z,42.88
2022-11-24T16:44:30.823Z,39.58
2022-11-24T16:47:00.829Z,40.15
2022-11-24T16:49:33.912Z,55.28
2022-11-24T16:52:06.255Z,40.78
2022-11-24T16:54:38.733Z,39.67
2022-11-24T16:57:14.609Z,40.05
2022-11-24T16:59:47.953Z,42.97
2022-11-24T17:02:19.550Z,44.78
2022-11-24T17:04:51.449Z,57.25
2022-11-24T17:07:23.744Z,64.47
2022-11-24T17:09:56.767Z,64.40
2022-11-24T17:12:27.325Z,64.72
2022-11-24T17:18:08.720Z,74.80
2022-11-24T17:20:39.008Z,62.28
2022-11-24T17:23:08.975Z,67.60
2022-11-24T17:25:38.778Z,64.28
2022-11-24T17:28:08.609Z,61.45
2022-11-24T17:30:39.999Z,62.85
2022-11-24T17:33:09.880Z,60.45
2022-11-24T17:35:39.949Z,47.85
2022-11-24T17:38:09.907Z,47.10
2022-11-24T17:40:52.641Z,51.63
2022-11-24T17:43:22.670Z,45.88
2022-11-24T17:46:02.595Z,55.92
2022-11-24T17:48:34.069Z,55.42
2022-11-24T17:51:09.484Z,43.58
2022-11-24T17:53:41.689Z,45.20
2022-11-24T17:56:15.715Z,51.35
2022-11-24T17:58:45.749Z,52.63
2022-11-24T18:01:18.843Z,49.70
2022-11-24T18:03:53.194Z,51.38
2022-11-24T18:06:26.784Z,44.45
2022-11-24T18:08:58.369Z,47.33
2022-11-24T18:11:32.052Z,45.80
2022-11-24T18:14:06.703Z,52.45
2022-11-24T18:16:37.396Z,50.03
2022-11-24T18:19:11.895Z,41.33
2022-11-24T18:21:43.205Z,40.72
2022-11-24T18:24:17.392Z,39.58
2022-11-24T18:26:49.477Z,42.22
2022-11-24T18:29:22.138Z,48.50
2022-11-24T18:31:52.093Z,45.00
2022-11-24T18:34:22.017Z,46.72
2022-11-24T18:36:54.268Z,42.88
2022-11-24T18:39:24.212Z,43.50
2022-11-24T18:41:54.038Z,46.20
2022-11-24T18:44:24.625Z,54.92
2022-11-24T18:47:01.007Z,49.30
2022-11-24T18:49:32.825Z,46.78
2022-11-24T18:52:05.913Z,49.63
2022-11-24T18:54:38.254Z,46.58
2022-11-24T18:57:08.117Z,53.03
2022-11-24T18:59:39.092Z,46.42
2022-11-24T19:02:09.262Z,45.92
2022-11-24T19:04:39.223Z,49.38
2022-11-24T19:07:09.084Z,41.72
2022-11-24T19:09:39.580Z,37.80
2022-11-24T19:12:10.466Z,46.88
2022-11-24T19:14:40.511Z,42.75
2022-11-24T19:17:10.379Z,52.70
2022-11-24T19:19:41.496Z,42.95
2022-11-24T19:22:12.025Z,49.25
2022-11-24T19:24:42.787Z,50.22
2022-11-24T19:27:12.656Z,47.17
2022-11-24T19:29:43.272Z,54.13
2022-11-24T19:32:13.359Z,43.63
2022-11-24T19:34:43.256Z,44.72
2022-11-24T19:37:13.147Z,36.70
2022-11-24T19:39:43.055Z,48.83
2022-11-24T19:42:12.976Z,37.30
2022-11-24T19:44:42.893Z,37.05
2022-11-24T19:47:19.943Z,40.67
2022-11-24T19:49:55.425Z,42.28
2022-11-24T19:52:25.284Z,47.83
2022-11-24T19:54:55.058Z,40.97
2022-11-24T19:57:25.088Z,46.53
2022-11-24T19:59:55.142Z,41.97
2022-11-24T20:02:25.107Z,50.08
2022-11-24T20:04:54.912Z,36.03
2022-11-24T20:07:24.878Z,34.53
2022-11-24T20:09:54.789Z,37.50
2022-11-24T20:12:24.548Z,38.70
2022-11-24T20:14:54.436Z,35.70
2022-11-24T20:17:24.295Z,38.28
2022-11-24T20:19:54.144Z,34.08
2022-11-24T20:22:24.246Z,41.58
2022-11-24T20:24:54.096Z,34.83
2022-11-24T20:27:23.934Z,31.92
2022-11-24T20:29:53.780Z,33.08
2022-11-24T20:32:23.636Z,34.83
2022-11-24T20:34:54.143Z,33.00
2022-11-24T20:37:24.999Z,40.75
2022-11-24T20:39:54.860Z,35.35
2022-11-24T20:42:24.665Z,31.38
2022-11-24T20:44:54.606Z,31.90
2022-11-24T20:47:24.366Z,34.33
2022-11-24T20:49:54.215Z,36.47
2022-11-24T20:52:24.041Z,42.08
2022-11-24T20:54:53.818Z,39.15
2022-11-24T20:57:23.545Z,41.63
2022-11-24T20:59:54.067Z,50.07
2022-11-24T21:02:23.997Z,40.50
2022-11-24T21:04:54.545Z,44.70
2022-11-24T21:07:24.336Z,39.08
2022-11-24T21:09:54.203Z,43.05
2022-11-24T21:12:25.064Z,42.35
2022-11-24T21:14:54.947Z,36.10
2022-11-24T21:17:24.799Z,45.85
2022-11-24T21:19:59.598Z,45.47
2022-11-24T21:22:30.758Z,36.47
2022-11-24T21:25:00.714Z,40.92
2022-11-24T21:27:30.507Z,35.35
2022-11-24T21:30:00.453Z,40.58
2022-11-24T21:32:32.061Z,33.75
2022-11-24T21:35:01.866Z,35.00
2022-11-24T21:37:31.684Z,34.80
2022-11-24T21:40:01.537Z,35.22
2022-11-24T21:42:31.414Z,39.55
2022-11-24T21:45:03.705Z,39.47
2022-11-24T21:47:33.486Z,33.50
2022-11-24T21:50:03.265Z,31.93
2022-11-24T21:52:34.004Z,42.88
2022-11-24T21:55:03.809Z,34.25
2022-11-24T21:57:33.678Z,33.08
2022-11-24T22:00:03.669Z,46.55
2022-11-24T22:02:33.568Z,30.65
2022-11-24T22:05:03.583Z,35.58
2022-11-24T22:07:34.885Z,32.88
2022-11-24T22:10:04.765Z,33.45
2022-11-24T22:12:34.563Z,33.78
2022-11-24T22:15:04.609Z,39.85
2022-11-24T22:17:34.635Z,39.28
2022-11-24T22:20:04.433Z,45.03
2022-11-24T22:22:34.291Z,44.65
2022-11-24T22:25:04.574Z,49.63
2022-11-24T22:27:34.684Z,53.05
2022-11-24T22:30:07.566Z,54.53
2022-11-24T22:32:37.324Z,45.00
2022-11-24T22:35:07.651Z,43.60
2022-11-24T22:37:38.492Z,49.47
2022-11-24T22:40:09.051Z,40.40
2022-11-24T22:42:38.904Z,42.08
2022-11-24T22:45:09.415Z,41.85
2022-11-24T22:47:39.365Z,44.88
2022-11-24T22:50:10.108Z,39.90
2022-11-24T22:52:42.105Z,43.45
2022-11-24T22:55:12.033Z,46.75
2022-11-24T22:57:46.017Z,38.80
2022-11-24T23:00:21.230Z,49.63
2022-11-24T23:02:51.098Z,47.92
2022-11-24T23:05:21.096Z,45.92
2022-11-24T23:07:50.994Z,44.35
2022-11-24T23:10:21.113Z,57.00
2022-11-24T23:12:51.531Z,51.75
2022-11-24T23:15:21.465Z,47.65
2022-11-24T23:17:51.183Z,52.92
2022-11-24T23:20:21.065Z,52.50
2022-11-24T23:22:51.051Z,47.17
2022-11-24T23:25:20.789Z,58.65
2022-11-24T23:27:50.599Z,52.07
2022-11-24T23:30:20.753Z,46.08
2022-11-24T23:32:50.491Z,52.33
2022-11-24T23:35:20.315Z,66.23
2022-11-24T23:38:07.049Z,53.97
2022-11-24T23:40:37.476Z,49.80
2022-11-24T23:43:07.345Z,49.20
2022-11-24T23:45:37.329Z,43.00
2022-11-24T23:48:10.119Z,44.97
2022-11-24T23:50:39.922Z,50.20
2022-11-24T23:53:10.410Z,59.67
2022-11-24T23:55:40.677Z,86.18
2022-11-24T23:58:10.711Z,87.03
